Time;durP1;ratioP1;P1;durP2;ratioP2;P2;SDS_P1;SDS_P2;PMS_P1;PMS_P2;Temp;Humidity;BMP_temperature;BMP_pressure;BME280_temperature;BME280_humidity;BME280_pressure;Samples;Min_cycle;Max_cycle;Signal;HPM_P1;HPM_P2
2022/03/21 00:05:01;;;;;;;46.90;26.10;;;;;;;3.63;35.11;101419.77;233278;1218;139325;-62
2022/03/21 00:10:05;;;;;;;49.60;26.40;;;;;;;3.53;35.50;101422.02;233507;1218;140677;-60
2022/03/21 00:15:10;;;;;;;50.30;25.60;;;;;;;3.45;35.60;101421.09;233240;1218;139182;-59
2022/03/21 00:20:15;;;;;;;48.30;25.90;;;;;;;3.40;35.59;101415.98;233257;1218;141529;-59
2022/03/21 00:25:21;;;;;;;49.50;25.80;;;;;;;3.30;35.72;101413.64;233304;1217;140358;-58
2022/03/21 00:30:29;;;;;;;55.20;26.60;;;;;;;3.20;36.30;101410.94;233302;1219;139447;-58
2022/03/21 00:35:33;;;;;;;51.30;25.90;;;;;;;3.14;36.26;101409.15;233087;1218;139460;-58
2022/03/21 00:40:36;;;;;;;50.00;26.10;;;;;;;3.08;36.60;101407.19;233395;1217;138917;-58
2022/03/21 00:45:39;;;;;;;52.10;25.90;;;;;;;3.01;36.85;101402.75;233379;1218;139637;-58
2022/03/21 00:50:42;;;;;;;53.10;27.30;;;;;;;2.91;37.00;101399.34;233272;1218;139898;-57
2022/03/21 00:55:47;;;;;;;50.70;26.10;;;;;;;2.82;37.31;101397.89;233317;1220;138553;-57
2022/03/21 01:00:50;;;;;;;49.40;26.00;;;;;;;2.73;37.69;101399.92;233308;1218;140073;-57
2022/03/21 01:05:53;;;;;;;54.30;26.30;;;;;;;2.66;37.46;101400.38;233418;1217;139713;-59
2022/03/21 01:10:57;;;;;;;53.50;26.60;;;;;;;2.57;38.07;101399.42;233298;1218;140801;-59
2022/03/21 01:15:59;;;;;;;52.40;28.10;;;;;;;2.49;38.12;101392.36;233047;1217;139517;-59
2022/03/21 01:21:03;;;;;;;55.80;27.90;;;;;;;2.48;38.34;101390.41;233293;1219;150515;-59
2022/03/21 01:26:05;;;;;;;48.50;26.80;;;;;;;2.43;38.46;101394.41;233123;1217;139064;-58
2022/03/21 01:31:09;;;;;;;54.80;28.10;;;;;;;2.33;38.51;101390.63;233266;1217;139033;-59
2022/03/21 01:36:12;;;;;;;50.00;27.80;;;;;;;2.27;38.87;101389.35;233231;1219;139262;-59
2022/03/21 01:41:15;;;;;;;50.80;27.30;;;;;;;2.20;39.16;101395.05;233218;1219;139520;-59
2022/03/21 01:46:18;;;;;;;59.00;28.70;;;;;;;2.10;39.16;101391.80;233225;1219;138611;-58
2022/03/21 01:51:22;;;;;;;51.30;28.00;;;;;;;2.04;39.50;101389.81;233282;1219;140561;-59
2022/03/21 01:56:27;;;;;;;50.50;25.80;;;;;;;1.99;39.55;101389.23;233212;1217;139049;-58
2022/03/21 02:01:30;;;;;;;57.50;26.80;;;;;;;1.93;39.62;101385.13;233145;1217;140164;-58
2022/03/21 02:06:33;;;;;;;56.60;28.90;;;;;;;1.88;39.73;101385.42;233276;1217;139013;-60
2022/03/21 02:11:37;;;;;;;52.50;27.70;;;;;;;1.83;39.81;101380.14;233215;1217;139165;-59
2022/03/21 02:16:40;;;;;;;56.30;28.00;;;;;;;1.76;40.11;101382.48;233366;1217;139142;-60
2022/03/21 02:21:48;;;;;;;57.70;28.60;;;;;;;1.67;40.13;101387.98;233370;1218;138840;-59
2022/03/21 02:26:52;;;;;;;51.40;27.00;;;;;;;1.59;40.24;101387.38;233299;1217;139196;-58
2022/03/21 02:31:56;;;;;;;61.60;29.60;;;;;;;1.54;40.35;101383.80;233263;1217;139001;-60
2022/03/21 02:37:00;;;;;;;58.60;29.10;;;;;;;1.55;40.62;101388.18;233175;1217;139204;-60
2022/03/21 02:42:04;;;;;;;60.70;28.60;;;;;;;1.51;40.54;101395.30;233323;1217;139258;-58
2022/03/21 02:47:09;;;;;;;57.10;28.20;;;;;;;1.46;40.79;101395.95;233235;1217;140197;-59
2022/03/21 02:52:12;;;;;;;61.00;28.70;;;;;;;1.38;40.64;101402.67;233455;1217;139375;-59
2022/03/21 02:57:15;;;;;;;60.30;29.30;;;;;;;1.39;40.86;101404.77;233234;1217;139307;-60
2022/03/21 03:02:18;;;;;;;52.90;27.70;;;;;;;1.43;40.83;101401.16;233140;1220;139402;-60
2022/03/21 03:07:21;;;;;;;54.00;26.90;;;;;;;1.48;40.85;101400.16;233221;1217;139204;-59
2022/03/21 03:12:24;;;;;;;54.40;28.00;;;;;;;1.43;41.02;101402.38;233335;1217;139774;-60
2022/03/21 03:17:27;;;;;;;57.30;28.60;;;;;;;1.37;41.13;101402.13;233153;1219;141220;-59
2022/03/21 03:22:31;;;;;;;55.30;28.00;;;;;;;1.32;41.15;101397.68;233292;1219;139812;-61
2022/03/21 03:27:34;;;;;;;56.40;26.40;;;;;;;1.27;41.26;101394.80;233424;1218;139559;-60
2022/03/21 03:32:39;;;;;;;57.30;28.80;;;;;;;1.23;41.35;101401.73;233198;1218;139821;-60
2022/03/21 03:37:43;;;;;;;60.20;29.60;;;;;;;1.20;41.68;101403.98;233070;1218;139587;-59
2022/03/21 03:42:46;;;;;;;62.80;28.30;;;;;;;1.20;41.75;101404.16;233176;1219;139413;-60
2022/03/21 03:47:49;;;;;;;59.80;29.30;;;;;;;1.17;41.70;101401.85;233178;1217;139134;-59
2022/03/21 03:52:52;;;;;;;59.50;28.70;;;;;;;1.15;41.78;101400.92;233365;1220;139180;-59
2022/03/21 03:57:55;;;;;;;59.90;29.00;;;;;;;1.13;41.93;101398.98;233305;1217;139011;-62
2022/03/21 04:08:19;;;;;;;58.20;30.60;;;;;;;0.95;42.31;101403.27;233199;1217;139740;-58
2022/03/21 04:13:22;;;;;;;66.70;29.70;;;;;;;0.91;42.19;101404.23;233238;1217;139331;-58
2022/03/21 04:18:26;;;;;;;59.10;30.10;;;;;;;0.89;42.43;101409.29;233143;1218;139473;-60
2022/03/21 04:23:49;;;;;;;62.80;30.40;;;;;;;0.86;42.45;101403.13;233173;1219;139002;-59
2022/03/21 04:28:52;;;;;;;58.80;29.40;;;;;;;0.86;42.79;101402.43;233259;1218;138548;-58
2022/03/21 04:33:55;;;;;;;63.70;29.30;;;;;;;0.82;42.74;101408.30;233097;1217;138953;-60
2022/03/21 04:38:58;;;;;;;61.20;30.30;;;;;;;0.75;42.79;101408.52;233140;1217;139204;-58
2022/03/21 04:44:01;;;;;;;101.70;55.00;;;;;;;0.80;43.12;101408.96;233117;1217;139469;-61
2022/03/21 04:49:04;;;;;;;63.20;31.30;;;;;;;0.86;43.47;101411.33;233275;1217;139621;-60
2022/03/21 04:54:07;;;;;;;64.40;31.60;;;;;;;0.86;43.60;101415.18;233343;1217;139030;-58
2022/03/21 04:59:10;;;;;;;72.90;31.30;;;;;;;0.82;43.46;101419.32;233056;1219;139262;-58
2022/03/21 05:04:13;;;;;;;72.80;31.90;;;;;;;0.80;43.61;101426.96;233292;1217;139229;-60
2022/03/21 05:09:16;;;;;;;70.20;30.60;;;;;;;0.80;43.68;101425.03;233324;1217;138859;-59
2022/03/21 05:14:19;;;;;;;63.50;30.30;;;;;;;0.74;43.70;101429.84;233390;1217;138908;-59
2022/03/21 05:19:23;;;;;;;58.50;29.50;;;;;;;0.69;43.95;101429.77;233248;1217;139780;-59
2022/03/21 05:40:34;;;;;;;55.40;29.70;;;;;;;0.69;44.36;101445.48;233314;1219;138788;-59
2022/03/21 05:45:37;;;;;;;56.40;28.40;;;;;;;0.73;44.38;101445.72;233237;1218;139453;-59
2022/03/21 05:50:40;;;;;;;56.40;27.30;;;;;;;0.79;44.23;101454.20;233166;1219;139248;-59
2022/03/21 05:55:45;;;;;;;57.90;29.40;;;;;;;0.88;44.25;101459.25;233149;1217;139303;-58
2022/03/21 06:00:48;;;;;;;57.80;27.90;;;;;;;1.00;44.15;101459.10;233267;1217;139688;-60
2022/03/21 06:05:52;;;;;;;52.20;27.20;;;;;;;1.15;44.10;101458.98;233321;1217;139460;-57
2022/03/21 06:11:04;;;;;;;49.10;27.40;;;;;;;1.32;43.93;101462.37;233392;1217;139302;-58
2022/03/21 06:16:07;;;;;;;51.40;27.30;;;;;;;1.49;43.85;101456.50;233174;1217;140323;-59
2022/03/21 06:21:12;;;;;;;53.70;27.30;;;;;;;1.66;43.80;101456.02;233185;1217;139385;-57
2022/03/21 06:26:15;;;;;;;47.70;27.60;;;;;;;1.82;43.76;101457.64;233005;1217;139135;-57
2022/03/21 06:31:18;;;;;;;57.00;29.20;;;;;;;2.00;43.64;101461.87;233081;1217;139268;-59
2022/03/21 06:36:22;;;;;;;54.80;28.90;;;;;;;2.19;43.62;101463.50;233266;1217;138842;-59
2022/03/21 06:41:25;;;;;;;57.20;28.20;;;;;;;2.40;43.69;101462.34;233294;1217;139548;-59
2022/03/21 06:46:28;;;;;;;54.30;29.60;;;;;;;2.62;43.31;101462.55;233394;1217;139122;-59
2022/03/21 06:51:31;;;;;;;59.50;29.90;;;;;;;2.81;43.24;101459.91;233268;1217;140084;-59
2022/03/21 06:56:34;;;;;;;55.10;29.30;;;;;;;2.99;43.16;101459.38;233348;1217;138848;-59
2022/03/21 07:01:37;;;;;;;64.60;31.00;;;;;;;3.19;43.01;101457.77;233267;1218;140012;-58
2022/03/21 07:06:40;;;;;;;58.90;29.10;;;;;;;3.39;43.01;101464.05;233233;1218;139264;-59
2022/03/21 07:11:44;;;;;;;60.60;30.70;;;;;;;3.59;42.85;101466.45;233210;1217;138739;-59
2022/03/21 07:16:48;;;;;;;55.70;29.70;;;;;;;3.79;42.75;101464.08;233417;1217;140718;-58
2022/03/21 07:21:51;;;;;;;68.60;28.80;;;;;;;3.99;42.49;101461.89;233168;1219;139192;-58
2022/03/21 07:26:55;;;;;;;50.10;27.40;;;;;;;4.19;42.39;101461.80;233275;1218;139032;-59
2022/03/21 07:31:57;;;;;;;47.00;24.90;;;;;;;4.40;42.17;101460.96;233220;1218;138897;-58
2022/03/21 07:37:01;;;;;;;46.10;25.70;;;;;;;4.59;41.52;101459.95;233224;1218;138836;-60
2022/03/21 07:42:04;;;;;;;47.40;26.30;;;;;;;4.82;41.57;101458.58;232724;1219;139845;-61
2022/03/21 07:47:22;;;;;;;50.40;26.80;;;;;;;5.03;41.21;101461.04;233363;1217;139193;-57
2022/03/21 07:52:25;;;;;;;49.90;26.00;;;;;;;5.22;40.86;101460.31;233310;1217;139284;-58
2022/03/21 07:57:28;;;;;;;49.10;25.40;;;;;;;5.40;40.72;101460.82;233235;1217;139250;-57
2022/03/21 08:02:32;;;;;;;48.70;24.80;;;;;;;5.59;40.43;101459.71;233221;1217;139387;-58
2022/03/21 08:07:35;;;;;;;40.20;22.90;;;;;;;5.80;39.84;101454.91;233177;1217;139283;-59
2022/03/21 08:12:42;;;;;;;39.80;21.30;;;;;;;6.02;39.60;101448.16;233235;1217;138825;-59
2022/03/21 08:17:56;;;;;;;35.20;21.60;;;;;;;6.24;39.38;101448.58;233330;1217;138776;-59
2022/03/21 08:23:01;;;;;;;44.70;23.30;;;;;;;6.48;38.95;101447.73;233379;1217;139127;-59
2022/03/21 08:28:05;;;;;;;38.40;20.10;;;;;;;6.70;38.27;101445.81;233302;1217;139239;-61
2022/03/21 08:33:10;;;;;;;35.30;20.00;;;;;;;6.86;38.39;101446.05;233103;1217;138958;-58
2022/03/21 08:38:13;;;;;;;38.00;21.10;;;;;;;6.99;37.81;101438.53;233179;1217;139266;-59
2022/03/21 08:43:16;;;;;;;40.00;23.20;;;;;;;7.14;37.62;101430.79;233256;1217;138997;-58
2022/03/21 08:49:23;;;;;;;32.00;19.90;;;;;;;7.31;37.53;101424.63;233304;1217;139137;-59
2022/03/21 08:53:42;;;;;;;35.50;20.70;;;;;;;7.52;37.54;101425.45;233268;1217;139367;-59
2022/03/21 08:58:45;;;;;;;30.70;18.00;;;;;;;7.68;37.22;101421.39;233373;1217;139180;-58
2022/03/21 09:03:49;;;;;;;38.10;17.80;;;;;;;7.82;36.61;101419.11;233229;1218;139024;-59
2022/03/21 09:08:56;;;;;;;30.20;17.50;;;;;;;8.00;36.85;101416.04;233311;1218;138845;-59
2022/03/21 09:14:02;;;;;;;29.80;16.10;;;;;;;8.21;36.32;101412.04;233225;1217;139423;-59
2022/03/21 09:19:06;;;;;;;25.20;14.90;;;;;;;8.42;36.17;101411.07;233514;1217;138990;-59
2022/03/21 09:24:10;;;;;;;31.10;15.80;;;;;;;8.61;35.91;101411.48;233173;1218;138786;-60
2022/03/21 09:29:14;;;;;;;27.00;15.50;;;;;;;8.77;35.73;101406.45;233405;1217;139351;-58
2022/03/21 09:34:18;;;;;;;30.60;15.60;;;;;;;8.94;35.49;101410.60;233102;1217;138395;-58
2022/03/21 09:39:20;;;;;;;28.90;15.80;;;;;;;9.09;35.25;101408.90;233220;1219;138850;-59
2022/03/21 09:44:24;;;;;;;26.00;12.70;;;;;;;9.24;35.02;101402.09;233227;1217;138903;-59
2022/03/21 09:49:30;;;;;;;24.70;12.50;;;;;;;9.41;34.89;101394.86;233198;1217;139640;-58
2022/03/21 09:54:33;;;;;;;26.60;15.20;;;;;;;9.60;34.69;101392.16;233340;1217;141149;-59
2022/03/21 09:59:36;;;;;;;25.40;13.90;;;;;;;9.80;34.46;101380.43;233222;1217;138700;-58
2022/03/21 10:04:39;;;;;;;22.70;13.80;;;;;;;9.91;34.23;101377.70;233239;1218;139057;-60
2022/03/21 10:09:42;;;;;;;25.40;14.50;;;;;;;10.06;34.29;101369.92;233159;1219;139186;-59
2022/03/21 10:14:48;;;;;;;19.80;13.40;;;;;;;10.28;34.17;101364.83;233042;1217;140725;-59
2022/03/21 10:19:53;;;;;;;25.60;14.20;;;;;;;10.48;34.05;101359.38;233108;1217;141261;-59
2022/03/21 10:25:03;;;;;;;221.60;126.10;;;;;;;10.67;33.89;101342.78;233078;1217;139726;-58
2022/03/21 10:30:08;;;;;;;17.80;9.90;;;;;;;10.96;33.62;101336.86;233108;1217;139960;-59
2022/03/21 10:35:18;;;;;;;21.90;10.60;;;;;;;11.25;32.74;101328.59;233202;1217;139160;-59
2022/03/21 10:40:25;;;;;;;19.60;10.90;;;;;;;11.59;32.82;101326.77;233078;1217;139539;-58
2022/03/21 10:45:42;;;;;;;20.30;11.50;;;;;;;11.88;32.73;101319.65;233174;1217;139403;-63
2022/03/21 10:50:48;;;;;;;20.70;11.70;;;;;;;12.14;31.98;101316.02;233052;1218;139976;-60
2022/03/21 10:55:57;;;;;;;25.30;12.00;;;;;;;12.35;32.03;101305.73;232979;1217;139582;-58
2022/03/21 11:01:17;;;;;;;35.50;22.20;;;;;;;12.54;31.78;101309.39;232567;1217;141673;-61
2022/03/21 11:06:24;;;;;;;24.80;12.70;;;;;;;12.64;31.22;101303.34;233135;1217;140448;-57
2022/03/21 11:11:56;;;;;;;20.70;11.50;;;;;;;12.67;30.94;101298.94;233020;1217;139282;-58
2022/03/21 11:16:59;;;;;;;18.20;11.50;;;;;;;12.72;31.03;101291.48;233280;1218;139053;-58
2022/03/21 11:22:02;;;;;;;17.60;10.80;;;;;;;12.83;31.15;101277.36;233169;1217;140223;-57
2022/03/21 11:27:31;;;;;;;14.10;8.60;;;;;;;13.01;30.94;101264.26;233129;1218;139545;-57
2022/03/21 11:32:58;;;;;;;13.70;8.00;;;;;;;13.15;30.20;101257.86;233174;1217;139815;-57
2022/03/21 11:38:23;;;;;;;16.40;9.10;;;;;;;13.23;29.97;101254.91;233096;1217;139155;-61
2022/03/21 11:43:29;;;;;;;15.00;8.80;;;;;;;13.35;29.89;101246.27;233238;1217;139195;-58
2022/03/21 11:48:33;;;;;;;15.50;8.90;;;;;;;13.53;29.88;101240.98;233157;1217;139316;-58
2022/03/21 11:53:44;;;;;;;16.90;9.00;;;;;;;13.73;29.64;101229.45;233194;1217;141093;-58
2022/03/21 11:58:47;;;;;;;12.30;7.90;;;;;;;14.02;29.05;101229.33;233196;1217;139389;-58
2022/03/21 12:04:34;;;;;;;11.90;8.20;;;;;;;14.19;28.96;101221.69;233234;1217;139732;-58
2022/03/21 12:09:54;;;;;;;11.80;7.30;;;;;;;14.51;28.63;101214.98;233079;1218;140876;-58
2022/03/21 12:14:58;;;;;;;11.60;7.30;;;;;;;14.80;28.45;101205.13;233169;1218;140606;-59
2022/03/21 12:20:03;;;;;;;11.50;7.20;;;;;;;15.10;28.26;101195.71;233044;1217;139485;-60
2022/03/21 12:25:28;;;;;;;15.40;7.90;;;;;;;15.32;27.76;101181.10;233191;1218;142927;-58
2022/03/21 12:30:32;;;;;;;13.80;8.10;;;;;;;15.57;27.41;101189.21;233265;1217;139267;-59
2022/03/21 12:35:35;;;;;;;16.00;8.00;;;;;;;15.69;27.13;101182.05;233128;1219;139832;-58
2022/03/21 12:40:50;;;;;;;12.40;8.20;;;;;;;15.86;27.06;101183.54;233272;1219;139767;-59
2022/03/21 12:45:58;;;;;;;14.10;9.40;;;;;;;16.00;26.76;101171.38;233219;1217;140034;-59
2022/03/21 12:51:05;;;;;;;14.60;8.20;;;;;;;16.23;26.97;101165.75;233185;1218;138934;-60
2022/03/21 12:56:09;;;;;;;14.50;9.10;;;;;;;16.34;26.43;101161.60;233250;1217;139916;-58
2022/03/21 13:01:17;;;;;;;18.40;10.30;;;;;;;16.47;26.24;101161.79;233273;1218;139380;-58
2022/03/21 13:11:47;;;;;;;16.70;10.80;;;;;;;16.75;26.23;101144.02;233170;1217;139985;-58
2022/03/21 13:16:50;;;;;;;20.50;11.50;;;;;;;16.95;25.94;101136.12;233316;1217;139996;-57
2022/03/21 13:21:55;;;;;;;20.30;11.00;;;;;;;17.24;26.13;101128.73;233061;1218;140903;-57
2022/03/21 13:26:58;;;;;;;15.70;9.60;;;;;;;17.51;25.82;101123.66;233169;1218;140219;-60
2022/03/21 13:32:03;;;;;;;13.50;9.00;;;;;;;17.70;25.59;101119.14;232920;1219;138786;-58
2022/03/21 13:37:19;;;;;;;15.30;8.90;;;;;;;17.92;25.59;101115.70;233179;1218;140412;-58
2022/03/21 13:42:23;;;;;;;30.60;21.60;;;;;;;18.09;26.03;101110.36;233043;1218;139947;-57
2022/03/21 13:47:26;;;;;;;14.40;8.70;;;;;;;18.49;32.10;101111.89;233296;1217;139481;-56
2022/03/21 13:52:44;;;;;;;11.10;8.10;;;;;;;18.73;30.97;101106.48;233131;1217;139585;-56
2022/03/21 13:57:50;;;;;;;16.50;9.50;;;;;;;18.76;29.59;101097.32;233021;1219;140833;-57
2022/03/21 14:02:55;;;;;;;12.50;8.30;;;;;;;18.55;28.77;101103.07;233079;1217;139305;-57
2022/03/21 14:08:10;;;;;;;13.40;7.30;;;;;;;18.14;27.94;101094.59;233168;1218;140135;-56
2022/03/21 14:13:25;;;;;;;9.80;6.60;;;;;;;17.69;27.49;101085.63;233095;1217;139867;-56
2022/03/21 14:18:36;;;;;;;13.90;6.40;;;;;;;17.30;27.54;101090.41;233158;1217;138812;-55
2022/03/21 14:23:39;;;;;;;10.10;6.50;;;;;;;16.98;27.50;101081.09;233091;1218;139125;-58
2022/03/21 14:28:43;;;;;;;8.80;6.20;;;;;;;16.59;25.95;101087.33;233232;1218;139860;-57
2022/03/21 14:33:47;;;;;;;9.70;6.30;;;;;;;16.14;25.32;101088.30;233055;1218;140166;-58
2022/03/21 14:38:50;;;;;;;18.90;11.60;;;;;;;15.75;25.16;101085.98;233166;1218;139085;-57
2022/03/21 14:43:53;;;;;;;11.10;7.20;;;;;;;15.43;25.00;101077.02;233073;1217;142724;-56
2022/03/21 14:48:58;;;;;;;11.10;7.30;;;;;;;15.13;25.03;101068.63;232972;1218;138877;-57
2022/03/21 14:54:01;;;;;;;9.90;7.00;;;;;;;14.90;25.06;101062.05;233103;1218;139387;-57
2022/03/21 14:59:04;;;;;;;9.70;7.10;;;;;;;14.77;25.24;101064.08;233200;1219;139620;-58
2022/03/21 15:04:07;;;;;;;12.50;7.50;;;;;;;14.63;24.91;101063.52;233082;1217;139237;-56
2022/03/21 15:09:10;;;;;;;14.70;8.30;;;;;;;14.46;25.17;101059.25;233121;1218;139373;-57
2022/03/21 15:14:14;;;;;;;12.20;7.50;;;;;;;14.35;25.24;101055.44;233053;1218;139826;-57
2022/03/21 15:19:17;;;;;;;15.50;8.50;;;;;;;14.25;25.39;101053.96;233043;1218;139704;-57
2022/03/21 15:24:22;;;;;;;15.80;9.20;;;;;;;14.09;25.14;101053.07;233083;1217;139255;-57
2022/03/21 15:29:25;;;;;;;21.20;9.00;;;;;;;14.03;25.18;101054.58;233239;1218;139346;-58
2022/03/21 15:34:28;;;;;;;20.70;9.40;;;;;;;13.94;25.45;101057.61;232898;1218;139654;-57
2022/03/21 15:44:53;;;;;;;14.40;9.80;;;;;;;13.71;25.31;101059.16;233227;1218;139493;-61
2022/03/21 15:49:56;;;;;;;18.20;9.30;;;;;;;13.64;25.43;101057.16;233086;1217;142125;-58
2022/03/21 15:54:59;;;;;;;20.20;9.70;;;;;;;13.54;25.20;101059.15;233074;1219;139657;-56
2022/03/21 16:00:08;;;;;;;18.50;10.90;;;;;;;13.49;25.76;101057.05;233114;1217;139090;-57
2022/03/21 16:05:27;;;;;;;19.10;9.80;;;;;;;13.45;25.27;101064.38;233169;1217;139471;-57
2022/03/21 16:10:30;;;;;;;13.20;9.20;;;;;;;13.40;25.62;101065.10;233094;1218;139966;-57
2022/03/21 16:15:33;;;;;;;15.70;9.10;;;;;;;13.33;25.45;101067.19;233081;1218;139394;-57
2022/03/21 16:20:41;;;;;;;23.40;10.20;;;;;;;13.25;25.79;101064.29;233088;1217;139947;-57
2022/03/21 16:25:46;;;;;;;26.70;11.20;;;;;;;13.14;25.92;101063.96;233036;1217;139696;-57
2022/03/21 16:30:52;;;;;;;24.90;11.70;;;;;;;13.04;26.19;101068.48;233034;1219;139466;-57
2022/03/21 16:35:55;;;;;;;25.40;13.00;;;;;;;12.97;26.44;101071.44;233024;1217;139320;-57
2022/03/21 16:40:58;;;;;;;26.10;12.70;;;;;;;12.86;26.57;101067.42;233177;1217;140357;-56
2022/03/21 16:46:02;;;;;;;25.10;12.50;;;;;;;12.75;26.64;101069.77;232987;1217;139945;-59
2022/03/21 16:51:05;;;;;;;34.50;13.30;;;;;;;12.65;26.72;101069.11;233104;1217;139452;-57
2022/03/21 16:56:11;;;;;;;80.70;45.90;;;;;;;12.61;28.92;101067.67;233046;1217;139833;-58
2022/03/21 17:01:15;;;;;;;330.60;210.80;;;;;;;13.02;29.11;101064.45;233135;1217;141132;-58
2022/03/21 17:06:18;;;;;;;43.90;20.70;;;;;;;13.01;28.16;101063.08;233036;1217;141074;-59
2022/03/21 17:11:34;;;;;;;;;;;;;;;12.81;27.38;101066.55;233085;1217;139954;-61
2022/03/21 17:16:41;;;;;;;38.20;17.00;;;;;;;12.55;27.01;101074.98;233216;1218;125307;-58
2022/03/21 17:27:13;;;;;;;37.10;17.50;;;;;;;12.11;27.51;101080.17;233073;1217;140164;-58
2022/03/21 17:32:16;;;;;;;33.60;17.10;;;;;;;11.93;27.46;101082.23;233053;1219;140232;-59
2022/03/21 17:37:35;;;;;;;45.00;18.80;;;;;;;11.76;27.49;101083.48;233413;1217;139721;-58
2022/03/21 17:42:38;;;;;;;44.70;20.10;;;;;;;11.63;27.79;101078.25;233671;1217;139793;-58
2022/03/21 17:47:42;;;;;;;53.50;21.90;;;;;;;11.48;27.60;101076.25;233673;1218;138953;-62
2022/03/21 17:52:46;;;;;;;139.50;71.90;;;;;;;11.36;28.24;101075.95;233751;1218;140337;-60
2022/03/21 17:57:49;;;;;;;68.70;29.00;;;;;;;11.37;28.49;101081.94;233581;1217;140640;-60
2022/03/21 18:02:52;;;;;;;58.60;26.40;;;;;;;11.29;28.07;101082.58;233595;1217;139296;-57
2022/03/21 18:07:56;;;;;;;56.90;24.60;;;;;;;11.17;28.01;101084.71;233606;1217;139043;-56
2022/03/21 18:12:59;;;;;;;50.50;24.50;;;;;;;11.00;28.35;101087.37;233620;1218;140006;-58
2022/03/21 18:18:03;;;;;;;45.60;23.40;;;;;;;10.85;28.58;101093.16;233571;1218;139383;-58
2022/03/21 18:23:06;;;;;;;46.40;22.80;;;;;;;10.74;28.83;101096.17;233778;1218;139427;-58
2022/03/21 18:28:11;;;;;;;46.50;24.50;;;;;;;10.62;28.74;101099.52;233493;1218;139359;-58
2022/03/21 18:33:14;;;;;;;44.70;23.80;;;;;;;10.52;28.74;101099.27;233514;1218;139733;-58
2022/03/21 18:38:18;;;;;;;46.30;24.40;;;;;;;10.45;28.95;101105.52;233639;1217;139158;-57
2022/03/21 18:43:21;;;;;;;49.90;24.50;;;;;;;10.39;28.78;101107.29;233644;1218;141014;-58
2022/03/21 18:48:24;;;;;;;52.20;23.80;;;;;;;10.32;28.70;101106.77;233614;1218;141303;-58
2022/03/21 18:53:28;;;;;;;49.40;24.00;;;;;;;10.20;28.91;101108.83;233738;1218;139133;-58
2022/03/21 18:58:31;;;;;;;60.90;33.90;;;;;;;10.09;28.84;101112.33;233561;1217;139435;-57
2022/03/21 19:03:38;;;;;;;260.50;159.10;;;;;;;10.06;29.37;101117.73;233580;1217;140105;-59
2022/03/21 19:08:42;;;;;;;55.80;28.20;;;;;;;10.07;29.36;101118.25;233597;1217;140020;-58
2022/03/21 19:13:45;;;;;;;45.50;23.20;;;;;;;9.99;29.20;101121.47;233706;1217;139251;-56
2022/03/21 19:18:48;;;;;;;44.40;23.00;;;;;;;9.86;29.20;101119.85;233305;1217;139177;-55
2022/03/21 19:23:53;;;;;;;38.40;20.20;;;;;;;9.76;29.10;101124.19;233562;1219;139353;-57
2022/03/21 19:28:56;;;;;;;40.40;19.60;;;;;;;9.64;29.12;101130.66;233824;1218;139109;-58
2022/03/21 19:33:58;;;;;;;41.60;20.80;;;;;;;9.58;29.26;101134.90;233563;1219;139841;-60
2022/03/21 19:39:02;;;;;;;42.30;21.50;;;;;;;9.55;29.30;101135.70;233631;1217;139512;-56
2022/03/21 19:44:06;;;;;;;41.40;21.40;;;;;;;9.57;29.28;101143.59;233660;1217;139764;-56
2022/03/21 19:49:11;;;;;;;37.20;21.00;;;;;;;9.57;29.37;101148.75;233553;1218;139329;-57
2022/03/21 19:54:15;;;;;;;42.80;22.90;;;;;;;9.53;29.32;101149.55;233477;1217;139529;-56
2022/03/21 19:59:18;;;;;;;44.00;23.80;;;;;;;9.49;29.13;101145.20;233618;1219;140113;-57
2022/03/21 20:04:41;;;;;;;53.20;26.20;;;;;;;9.44;29.37;101151.18;233637;1218;139536;-57
2022/03/21 20:09:45;;;;;;;85.50;52.80;;;;;;;9.40;29.44;101153.77;233576;1217;139299;-58
2022/03/21 20:14:49;;;;;;;61.40;29.30;;;;;;;9.42;29.84;101149.98;233567;1218;139414;-57
2022/03/21 20:19:52;;;;;;;55.90;28.80;;;;;;;9.39;29.49;101153.95;233682;1218;138758;-58
2022/03/21 20:24:59;;;;;;;60.30;27.40;;;;;;;9.35;29.79;101158.13;233569;1219;138621;-58
2022/03/21 20:30:07;;;;;;;44.80;23.40;;;;;;;9.24;29.72;101158.71;233348;1218;139718;-59
2022/03/21 20:35:12;;;;;;;49.20;25.00;;;;;;;9.17;29.70;101159.95;233783;1218;139190;-58
2022/03/21 20:40:15;;;;;;;62.60;35.30;;;;;;;9.16;30.18;101161.39;233677;1218;139839;-58
2022/03/21 20:45:18;;;;;;;41.80;21.10;;;;;;;9.16;29.93;101163.33;233637;1218;138885;-58
2022/03/21 20:50:26;;;;;;;39.00;22.30;;;;;;;9.09;30.02;101161.73;233657;1217;139674;-58
2022/03/21 20:55:29;;;;;;;48.10;22.50;;;;;;;9.00;30.04;101166.32;233703;1218;139057;-59
2022/03/21 21:00:32;;;;;;;54.40;22.40;;;;;;;8.92;29.96;101161.36;233679;1218;139220;-57
2022/03/21 21:05:36;;;;;;;52.00;23.30;;;;;;;8.85;30.11;101165.75;233793;1218;138976;-57
2022/03/21 21:10:51;;;;;;;53.20;22.90;;;;;;;8.80;30.49;101167.65;233656;1217;140739;-57
2022/03/21 21:15:55;;;;;;;44.40;24.00;;;;;;;8.72;30.51;101169.91;233638;1218;139606;-58
2022/03/21 21:20:59;;;;;;;47.50;23.50;;;;;;;8.67;30.56;101169.85;233372;1218;139939;-61
2022/03/21 21:26:04;;;;;;;46.00;27.40;;;;;;;8.64;30.88;101167.08;233695;1219;151449;-58
2022/03/21 21:31:07;;;;;;;64.00;33.70;;;;;;;8.60;31.37;101166.45;233263;1218;139333;-59
2022/03/21 21:36:10;;;;;;;48.70;26.10;;;;;;;8.51;31.15;101166.10;233499;1219;138983;-58
2022/03/21 21:41:13;;;;;;;48.00;25.00;;;;;;;8.39;31.21;101164.90;233602;1217;139149;-58
2022/03/21 21:46:16;;;;;;;46.40;25.70;;;;;;;8.29;31.22;101159.56;233235;1217;139698;-60
2022/03/21 21:51:19;;;;;;;51.00;24.70;;;;;;;8.22;31.40;101154.03;233156;1217;139014;-60
2022/03/21 21:56:22;;;;;;;50.50;25.10;;;;;;;8.19;31.41;101154.99;233113;1217;139879;-58
2022/03/21 22:01:25;;;;;;;48.50;25.50;;;;;;;8.15;31.58;101151.52;233156;1217;139582;-59
2022/03/21 22:06:31;;;;;;;47.20;25.00;;;;;;;8.11;31.47;101148.40;233125;1217;139386;-59
2022/03/21 22:11:34;;;;;;;46.10;25.00;;;;;;;8.08;32.04;101143.52;233201;1219;139322;-54
2022/03/21 22:16:38;;;;;;;51.70;25.20;;;;;;;8.02;31.94;101145.02;233089;1219;140021;-58
2022/03/21 22:21:43;;;;;;;49.70;24.40;;;;;;;7.96;32.26;101142.84;233042;1219;138920;-59
2022/03/21 22:26:47;;;;;;;47.20;25.10;;;;;;;7.89;32.55;101140.48;233115;1217;138950;-63
2022/03/21 22:31:50;;;;;;;48.40;25.00;;;;;;;7.81;32.18;101143.63;233025;1217;139634;-60
2022/03/21 22:36:53;;;;;;;53.10;26.70;;;;;;;7.73;32.33;101142.52;233087;1217;140337;-58
2022/03/21 22:47:19;;;;;;;48.50;25.40;;;;;;;7.58;32.22;101142.23;233153;1217;139298;-57
2022/03/21 22:52:23;;;;;;;47.10;26.30;;;;;;;7.51;32.57;101146.22;233101;1217;139857;-59
2022/03/21 22:57:26;;;;;;;52.80;26.10;;;;;;;7.43;32.89;101148.99;233129;1217;139263;-60
2022/03/21 23:02:29;;;;;;;54.80;27.50;;;;;;;7.34;32.80;101148.95;233326;1217;138895;-59
2022/03/21 23:07:32;;;;;;;90.20;48.50;;;;;;;7.28;33.38;101151.52;233257;1217;139706;-59
2022/03/21 23:12:35;;;;;;;59.90;30.40;;;;;;;7.29;33.38;101148.84;233350;1217;139017;-58
2022/03/21 23:17:39;;;;;;;54.70;28.80;;;;;;;7.23;33.32;101144.52;233520;1217;138688;-59
2022/03/21 23:22:42;;;;;;;54.20;29.40;;;;;;;7.14;33.40;101140.77;233238;1217;139589;-57
2022/03/21 23:27:46;;;;;;;57.30;28.40;;;;;;;7.06;33.70;101142.83;233281;1219;138762;-58
2022/03/21 23:32:49;;;;;;;54.40;28.20;;;;;;;6.98;33.87;101144.00;233220;1217;139497;-59